CPX717 Details

Departure: Miami International Airport (KMIA)
Arrival: General Omar Torrijos International Airport (MPTO) at N/A
Route: EONNS2 EONNS A509 URSUS UA301 UCA UG437 MARMA OSUPA
Notes:


Current Weather Information
KMIA 171753Z 16011G18KT 10SM VCTS -RA SCT040CB SCT050 BKN100 BKN250 32/24 A3006 RMK AO2 LTG DSNT N AND NE RAB50 SLP181 CB N MOV N P0000 60000 T03170239 10339 20278 58012
MPTO 171700Z VRB02KT 9999 SCT018TCU 29/24 Q1014 NOSIG